sensor_id;sensor_type;location;lat;lon;timestamp;P1;durP1;ratioP1;P2;durP2;ratioP2
20454;SDS011;10386;54.314;10.022;2023-07-24T00:00:33;11.03;;;7.73;;
20454;SDS011;10386;54.314;10.022;2023-07-24T00:03:02;9.17;;;7.37;;
20454;SDS011;10386;54.314;10.022;2023-07-24T00:05:29;14.40;;;7.77;;
20454;SDS011;10386;54.314;10.022;2023-07-24T00:07:56;16.17;;;8.07;;
20454;SDS011;10386;54.314;10.022;2023-07-24T00:10:23;11.47;;;7.90;;
20454;SDS011;10386;54.314;10.022;2023-07-24T00:12:51;11.57;;;7.43;;
20454;SDS011;10386;54.314;10.022;2023-07-24T00:15:18;13.40;;;8.23;;
20454;SDS011;10386;54.314;10.022;2023-07-24T00:17:45;11.20;;;7.83;;
20454;SDS011;10386;54.314;10.022;2023-07-24T00:20:12;11.63;;;8.33;;
20454;SDS011;10386;54.314;10.022;2023-07-24T00:22:41;13.60;;;8.40;;
20454;SDS011;10386;54.314;10.022;2023-07-24T00:25:08;14.33;;;7.83;;
20454;SDS011;10386;54.314;10.022;2023-07-24T00:27:35;13.23;;;8.40;;
20454;SDS011;10386;54.314;10.022;2023-07-24T00:30:02;10.83;;;7.77;;
20454;SDS011;10386;54.314;10.022;2023-07-24T00:32:29;10.83;;;7.47;;
20454;SDS011;10386;54.314;10.022;2023-07-24T00:34:56;13.50;;;7.93;;
20454;SDS011;10386;54.314;10.022;2023-07-24T00:37:23;12.50;;;8.33;;
20454;SDS011;10386;54.314;10.022;2023-07-24T00:39:50;11.90;;;7.80;;
20454;SDS011;10386;54.314;10.022;2023-07-24T00:42:17;13.73;;;8.20;;
20454;SDS011;10386;54.314;10.022;2023-07-24T00:44:45;14.23;;;8.10;;
20454;SDS011;10386;54.314;10.022;2023-07-24T00:47:12;14.80;;;8.20;;
20454;SDS011;10386;54.314;10.022;2023-07-24T00:49:39;11.87;;;7.43;;
20454;SDS011;10386;54.314;10.022;2023-07-24T00:52:07;13.43;;;7.63;;
20454;SDS011;10386;54.314;10.022;2023-07-24T00:54:34;14.07;;;8.03;;
20454;SDS011;10386;54.314;10.022;2023-07-24T00:57:01;11.67;;;7.37;;
20454;SDS011;10386;54.314;10.022;2023-07-24T00:59:30;10.40;;;7.53;;
20454;SDS011;10386;54.314;10.022;2023-07-24T01:01:58;18.73;;;8.03;;
20454;SDS011;10386;54.314;10.022;2023-07-24T01:04:25;15.03;;;7.63;;
20454;SDS011;10386;54.314;10.022;2023-07-24T01:06:52;12.10;;;7.30;;
20454;SDS011;10386;54.314;10.022;2023-07-24T01:09:19;20.27;;;8.37;;
20454;SDS011;10386;54.314;10.022;2023-07-24T01:11:47;10.87;;;7.33;;
20454;SDS011;10386;54.314;10.022;2023-07-24T01:17:02;14.93;;;7.40;;
20454;SDS011;10386;54.314;10.022;2023-07-24T01:19:37;12.07;;;7.40;;
20454;SDS011;10386;54.314;10.022;2023-07-24T01:27:42;14.67;;;7.63;;
20454;SDS011;10386;54.314;10.022;2023-07-24T01:30:10;13.03;;;7.40;;
20454;SDS011;10386;54.314;10.022;2023-07-24T01:32:38;15.10;;;7.53;;
20454;SDS011;10386;54.314;10.022;2023-07-24T01:35:06;16.80;;;8.03;;
20454;SDS011;10386;54.314;10.022;2023-07-24T01:37:34;13.10;;;7.37;;
20454;SDS011;10386;54.314;10.022;2023-07-24T01:40:02;13.87;;;8.53;;
20454;SDS011;10386;54.314;10.022;2023-07-24T01:42:29;16.47;;;7.93;;
20454;SDS011;10386;54.314;10.022;2023-07-24T01:44:57;13.23;;;7.50;;
20454;SDS011;10386;54.314;10.022;2023-07-24T01:47:24;13.50;;;7.93;;
20454;SDS011;10386;54.314;10.022;2023-07-24T01:49:52;12.33;;;8.30;;
20454;SDS011;10386;54.314;10.022;2023-07-24T01:52:19;13.07;;;8.10;;
20454;SDS011;10386;54.314;10.022;2023-07-24T01:54:45;15.73;;;8.20;;
20454;SDS011;10386;54.314;10.022;2023-07-24T01:57:12;15.03;;;7.90;;
20454;SDS011;10386;54.314;10.022;2023-07-24T01:59:39;13.47;;;7.60;;
20454;SDS011;10386;54.314;10.022;2023-07-24T02:02:06;14.20;;;7.97;;
20454;SDS011;10386;54.314;10.022;2023-07-24T02:04:34;14.87;;;8.47;;
20454;SDS011;10386;54.314;10.022;2023-07-24T02:07:00;17.83;;;8.10;;
20454;SDS011;10386;54.314;10.022;2023-07-24T02:09:27;15.77;;;8.73;;
20454;SDS011;10386;54.314;10.022;2023-07-24T02:11:54;15.17;;;8.50;;
20454;SDS011;10386;54.314;10.022;2023-07-24T02:14:21;14.27;;;8.00;;
20454;SDS011;10386;54.314;10.022;2023-07-24T02:16:47;19.83;;;9.03;;
20454;SDS011;10386;54.314;10.022;2023-07-24T02:19:14;17.70;;;9.10;;
20454;SDS011;10386;54.314;10.022;2023-07-24T02:21:41;22.87;;;9.53;;
20454;SDS011;10386;54.314;10.022;2023-07-24T02:24:08;14.30;;;9.03;;
20454;SDS011;10386;54.314;10.022;2023-07-24T02:26:34;17.63;;;9.77;;
20454;SDS011;10386;54.314;10.022;2023-07-24T02:29:01;17.50;;;9.10;;
20454;SDS011;10386;54.314;10.022;2023-07-24T02:31:28;18.40;;;8.90;;
20454;SDS011;10386;54.314;10.022;2023-07-24T02:33:55;15.70;;;9.40;;
20454;SDS011;10386;54.314;10.022;2023-07-24T02:36:22;19.07;;;9.03;;
20454;SDS011;10386;54.314;10.022;2023-07-24T02:38:49;14.07;;;9.17;;
20454;SDS011;10386;54.314;10.022;2023-07-24T02:41:15;17.80;;;9.20;;
20454;SDS011;10386;54.314;10.022;2023-07-24T02:43:42;17.17;;;9.10;;
20454;SDS011;10386;54.314;10.022;2023-07-24T02:46:09;13.63;;;8.90;;
20454;SDS011;10386;54.314;10.022;2023-07-24T02:48:36;17.90;;;8.63;;
20454;SDS011;10386;54.314;10.022;2023-07-24T02:51:03;17.10;;;9.23;;
20454;SDS011;10386;54.314;10.022;2023-07-24T02:53:29;17.03;;;9.53;;
20454;SDS011;10386;54.314;10.022;2023-07-24T02:55:56;14.47;;;9.17;;
20454;SDS011;10386;54.314;10.022;2023-07-24T02:58:23;16.70;;;9.17;;
20454;SDS011;10386;54.314;10.022;2023-07-24T03:00:49;16.27;;;8.93;;
20454;SDS011;10386;54.314;10.022;2023-07-24T03:03:16;23.53;;;9.47;;
20454;SDS011;10386;54.314;10.022;2023-07-24T03:05:44;15.00;;;9.40;;
20454;SDS011;10386;54.314;10.022;2023-07-24T03:08:11;17.57;;;9.00;;
20454;SDS011;10386;54.314;10.022;2023-07-24T03:10:41;13.13;;;8.30;;
20454;SDS011;10386;54.314;10.022;2023-07-24T03:13:08;13.37;;;8.17;;
20454;SDS011;10386;54.314;10.022;2023-07-24T03:15:35;16.27;;;8.87;;
20454;SDS011;10386;54.314;10.022;2023-07-24T03:18:02;14.57;;;8.90;;
20454;SDS011;10386;54.314;10.022;2023-07-24T03:20:29;16.20;;;8.57;;
20454;SDS011;10386;54.314;10.022;2023-07-24T03:22:55;15.57;;;8.67;;
20454;SDS011;10386;54.314;10.022;2023-07-24T03:25:22;18.13;;;9.17;;
20454;SDS011;10386;54.314;10.022;2023-07-24T03:27:49;21.20;;;8.87;;
20454;SDS011;10386;54.314;10.022;2023-07-24T03:30:16;16.97;;;8.73;;
20454;SDS011;10386;54.314;10.022;2023-07-24T03:32:43;15.73;;;8.73;;
20454;SDS011;10386;54.314;10.022;2023-07-24T03:35:10;12.10;;;8.60;;
20454;SDS011;10386;54.314;10.022;2023-07-24T03:37:37;14.53;;;8.20;;
20454;SDS011;10386;54.314;10.022;2023-07-24T03:40:05;14.43;;;8.27;;
20454;SDS011;10386;54.314;10.022;2023-07-24T03:42:32;14.93;;;8.37;;
20454;SDS011;10386;54.314;10.022;2023-07-24T03:44:59;16.33;;;8.77;;
20454;SDS011;10386;54.314;10.022;2023-07-24T03:47:26;15.47;;;8.77;;
20454;SDS011;10386;54.314;10.022;2023-07-24T03:49:55;14.43;;;8.13;;
20454;SDS011;10386;54.314;10.022;2023-07-24T03:52:22;18.50;;;9.07;;
20454;SDS011;10386;54.314;10.022;2023-07-24T03:54:49;15.10;;;8.23;;
20454;SDS011;10386;54.314;10.022;2023-07-24T03:57:17;14.07;;;8.30;;
20454;SDS011;10386;54.314;10.022;2023-07-24T03:59:44;20.53;;;8.23;;
20454;SDS011;10386;54.314;10.022;2023-07-24T04:02:11;15.60;;;8.17;;
20454;SDS011;10386;54.314;10.022;2023-07-24T04:04:38;16.37;;;8.27;;
20454;SDS011;10386;54.314;10.022;2023-07-24T04:07:05;12.40;;;6.93;;
20454;SDS011;10386;54.314;10.022;2023-07-24T04:09:32;16.57;;;7.73;;
20454;SDS011;10386;54.314;10.022;2023-07-24T04:11:59;14.37;;;7.03;;
20454;SDS011;10386;54.314;10.022;2023-07-24T04:14:26;14.80;;;7.67;;
20454;SDS011;10386;54.314;10.022;2023-07-24T04:16:52;13.43;;;8.10;;
20454;SDS011;10386;54.314;10.022;2023-07-24T04:19:20;17.03;;;7.77;;
20454;SDS011;10386;54.314;10.022;2023-07-24T04:21:47;15.10;;;8.10;;
20454;SDS011;10386;54.314;10.022;2023-07-24T04:24:13;14.17;;;8.03;;
20454;SDS011;10386;54.314;10.022;2023-07-24T04:26:41;13.40;;;7.27;;
20454;SDS011;10386;54.314;10.022;2023-07-24T04:29:08;17.80;;;7.73;;
20454;SDS011;10386;54.314;10.022;2023-07-24T04:31:35;15.37;;;7.70;;
20454;SDS011;10386;54.314;10.022;2023-07-24T04:34:02;17.07;;;8.30;;
20454;SDS011;10386;54.314;10.022;2023-07-24T04:36:29;18.40;;;7.83;;
20454;SDS011;10386;54.314;10.022;2023-07-24T04:38:56;18.53;;;9.00;;
20454;SDS011;10386;54.314;10.022;2023-07-24T04:41:24;15.20;;;7.37;;
20454;SDS011;10386;54.314;10.022;2023-07-24T04:43:51;19.07;;;7.97;;
20454;SDS011;10386;54.314;10.022;2023-07-24T04:46:17;14.20;;;8.23;;
20454;SDS011;10386;54.314;10.022;2023-07-24T04:48:44;17.57;;;7.97;;
20454;SDS011;10386;54.314;10.022;2023-07-24T04:51:11;14.00;;;7.57;;
20454;SDS011;10386;54.314;10.022;2023-07-24T04:53:38;16.37;;;7.70;;
20454;SDS011;10386;54.314;10.022;2023-07-24T04:56:05;12.30;;;7.23;;
20454;SDS011;10386;54.314;10.022;2023-07-24T04:58:31;19.70;;;8.77;;
20454;SDS011;10386;54.314;10.022;2023-07-24T05:01:01;16.50;;;8.07;;
20454;SDS011;10386;54.314;10.022;2023-07-24T05:03:30;16.03;;;8.27;;
20454;SDS011;10386;54.314;10.022;2023-07-24T05:05:58;17.30;;;7.83;;
20454;SDS011;10386;54.314;10.022;2023-07-24T05:08:25;16.20;;;8.13;;
20454;SDS011;10386;54.314;10.022;2023-07-24T05:10:55;19.47;;;8.63;;
20454;SDS011;10386;54.314;10.022;2023-07-24T05:13:26;19.20;;;8.37;;
20454;SDS011;10386;54.314;10.022;2023-07-24T05:15:53;14.50;;;7.60;;
20454;SDS011;10386;54.314;10.022;2023-07-24T05:18:20;19.87;;;8.13;;
20454;SDS011;10386;54.314;10.022;2023-07-24T05:20:47;15.73;;;8.30;;
20454;SDS011;10386;54.314;10.022;2023-07-24T05:23:17;14.40;;;7.87;;
20454;SDS011;10386;54.314;10.022;2023-07-24T05:25:44;17.10;;;8.00;;
20454;SDS011;10386;54.314;10.022;2023-07-24T05:28:11;13.80;;;8.10;;
20454;SDS011;10386;54.314;10.022;2023-07-24T05:30:38;16.50;;;7.37;;
20454;SDS011;10386;54.314;10.022;2023-07-24T05:33:04;14.13;;;7.83;;
20454;SDS011;10386;54.314;10.022;2023-07-24T05:35:31;19.07;;;7.80;;
20454;SDS011;10386;54.314;10.022;2023-07-24T05:37:58;19.30;;;7.80;;
20454;SDS011;10386;54.314;10.022;2023-07-24T05:40:25;12.70;;;7.00;;
20454;SDS011;10386;54.314;10.022;2023-07-24T05:42:52;16.93;;;7.80;;
20454;SDS011;10386;54.314;10.022;2023-07-24T05:45:19;17.97;;;7.90;;
20454;SDS011;10386;54.314;10.022;2023-07-24T05:47:46;18.47;;;7.73;;
20454;SDS011;10386;54.314;10.022;2023-07-24T05:50:13;16.30;;;7.97;;
20454;SDS011;10386;54.314;10.022;2023-07-24T05:52:40;15.80;;;7.73;;
20454;SDS011;10386;54.314;10.022;2023-07-24T05:55:07;15.67;;;7.30;;
20454;SDS011;10386;54.314;10.022;2023-07-24T05:57:34;14.47;;;7.80;;
20454;SDS011;10386;54.314;10.022;2023-07-24T06:00:05;14.63;;;7.40;;
20454;SDS011;10386;54.314;10.022;2023-07-24T06:02:33;14.87;;;7.40;;
20454;SDS011;10386;54.314;10.022;2023-07-24T06:04:59;17.90;;;8.00;;
20454;SDS011;10386;54.314;10.022;2023-07-24T06:07:27;18.27;;;7.60;;
20454;SDS011;10386;54.314;10.022;2023-07-24T06:09:53;12.00;;;7.38;;
20454;SDS011;10386;54.314;10.022;2023-07-24T06:12:20;17.77;;;8.50;;
20454;SDS011;10386;54.314;10.022;2023-07-24T06:14:47;18.50;;;7.70;;
20454;SDS011;10386;54.314;10.022;2023-07-24T06:17:14;17.00;;;8.17;;
20454;SDS011;10386;54.314;10.022;2023-07-24T06:19:41;19.77;;;7.63;;
20454;SDS011;10386;54.314;10.022;2023-07-24T06:22:07;15.00;;;8.67;;
20454;SDS011;10386;54.314;10.022;2023-07-24T06:24:34;19.93;;;7.90;;
20454;SDS011;10386;54.314;10.022;2023-07-24T06:27:01;14.65;;;7.50;;
20454;SDS011;10386;54.314;10.022;2023-07-24T06:29:28;14.40;;;7.43;;
20454;SDS011;10386;54.314;10.022;2023-07-24T06:31:55;13.10;;;7.70;;
20454;SDS011;10386;54.314;10.022;2023-07-24T06:34:21;13.67;;;7.73;;
20454;SDS011;10386;54.314;10.022;2023-07-24T06:36:48;13.73;;;7.60;;
20454;SDS011;10386;54.314;10.022;2023-07-24T06:39:15;14.37;;;7.80;;
20454;SDS011;10386;54.314;10.022;2023-07-24T06:41:42;13.43;;;7.80;;
20454;SDS011;10386;54.314;10.022;2023-07-24T06:44:09;15.07;;;7.93;;
20454;SDS011;10386;54.314;10.022;2023-07-24T06:46:36;14.43;;;7.53;;
20454;SDS011;10386;54.314;10.022;2023-07-24T06:49:03;18.13;;;8.37;;
20454;SDS011;10386;54.314;10.022;2023-07-24T06:51:29;18.50;;;8.23;;
20454;SDS011;10386;54.314;10.022;2023-07-24T06:53:56;16.73;;;7.80;;
20454;SDS011;10386;54.314;10.022;2023-07-24T06:56:23;16.53;;;8.07;;
20454;SDS011;10386;54.314;10.022;2023-07-24T06:58:50;17.03;;;8.30;;
20454;SDS011;10386;54.314;10.022;2023-07-24T07:01:16;14.00;;;7.13;;
20454;SDS011;10386;54.314;10.022;2023-07-24T07:03:43;13.00;;;7.87;;
20454;SDS011;10386;54.314;10.022;2023-07-24T07:06:10;18.17;;;8.65;;
20454;SDS011;10386;54.314;10.022;2023-07-24T07:08:58;16.60;;;7.70;;
20454;SDS011;10386;54.314;10.022;2023-07-24T07:11:26;12.38;;;7.90;;
20454;SDS011;10386;54.314;10.022;2023-07-24T07:13:53;17.65;;;8.25;;
20454;SDS011;10386;54.314;10.022;2023-07-24T07:16:19;14.23;;;7.93;;
20454;SDS011;10386;54.314;10.022;2023-07-24T07:18:46;16.52;;;8.43;;
20454;SDS011;10386;54.314;10.022;2023-07-24T07:21:13;15.27;;;7.93;;
20454;SDS011;10386;54.314;10.022;2023-07-24T07:23:40;16.75;;;8.30;;
20454;SDS011;10386;54.314;10.022;2023-07-24T07:26:07;13.83;;;7.90;;
20454;SDS011;10386;54.314;10.022;2023-07-24T07:28:33;15.23;;;8.68;;
20454;SDS011;10386;54.314;10.022;2023-07-24T07:31:00;19.43;;;8.33;;
20454;SDS011;10386;54.314;10.022;2023-07-24T07:33:27;12.88;;;7.93;;
20454;SDS011;10386;54.314;10.022;2023-07-24T07:35:54;13.73;;;8.75;;
20454;SDS011;10386;54.314;10.022;2023-07-24T07:38:24;17.20;;;8.55;;
20454;SDS011;10386;54.314;10.022;2023-07-24T07:40:51;14.00;;;8.57;;
20454;SDS011;10386;54.314;10.022;2023-07-24T07:43:18;14.73;;;8.23;;
20454;SDS011;10386;54.314;10.022;2023-07-24T07:45:44;13.75;;;8.80;;
20454;SDS011;10386;54.314;10.022;2023-07-24T07:48:13;13.55;;;8.40;;
20454;SDS011;10386;54.314;10.022;2023-07-24T07:50:40;12.38;;;8.48;;
20454;SDS011;10386;54.314;10.022;2023-07-24T07:53:07;14.35;;;9.50;;
20454;SDS011;10386;54.314;10.022;2023-07-24T07:55:34;19.15;;;9.85;;
20454;SDS011;10386;54.314;10.022;2023-07-24T07:58:01;13.18;;;9.27;;
20454;SDS011;10386;54.314;10.022;2023-07-24T08:00:28;16.92;;;9.38;;
20454;SDS011;10386;54.314;10.022;2023-07-24T08:02:54;16.20;;;9.60;;
20454;SDS011;10386;54.314;10.022;2023-07-24T08:05:21;15.80;;;9.47;;
20454;SDS011;10386;54.314;10.022;2023-07-24T08:07:48;17.30;;;10.38;;
20454;SDS011;10386;54.314;10.022;2023-07-24T08:10:15;17.58;;;9.68;;
20454;SDS011;10386;54.314;10.022;2023-07-24T08:12:43;20.00;;;10.55;;
20454;SDS011;10386;54.314;10.022;2023-07-24T08:15:10;19.73;;;10.50;;
20454;SDS011;10386;54.314;10.022;2023-07-24T08:17:38;17.90;;;10.73;;
20454;SDS011;10386;54.314;10.022;2023-07-24T08:20:05;19.73;;;11.27;;
20454;SDS011;10386;54.314;10.022;2023-07-24T08:22:32;19.75;;;12.00;;
20454;SDS011;10386;54.314;10.022;2023-07-24T08:25:00;16.38;;;10.82;;
20454;SDS011;10386;54.314;10.022;2023-07-24T08:27:27;20.47;;;11.43;;
20454;SDS011;10386;54.314;10.022;2023-07-24T08:29:54;22.47;;;11.60;;
20454;SDS011;10386;54.314;10.022;2023-07-24T08:32:21;20.30;;;11.60;;
20454;SDS011;10386;54.314;10.022;2023-07-24T08:34:48;19.48;;;11.73;;
20454;SDS011;10386;54.314;10.022;2023-07-24T08:37:15;19.38;;;11.68;;
20454;SDS011;10386;54.314;10.022;2023-07-24T08:39:42;17.88;;;11.13;;
20454;SDS011;10386;54.314;10.022;2023-07-24T08:42:10;17.45;;;11.05;;
20454;SDS011;10386;54.314;10.022;2023-07-24T08:44:38;17.45;;;10.55;;
20454;SDS011;10386;54.314;10.022;2023-07-24T08:47:05;16.58;;;9.60;;
20454;SDS011;10386;54.314;10.022;2023-07-24T08:49:36;21.57;;;11.60;;
20454;SDS011;10386;54.314;10.022;2023-07-24T08:52:05;19.73;;;10.73;;
20454;SDS011;10386;54.314;10.022;2023-07-24T08:54:32;14.90;;;10.07;;
20454;SDS011;10386;54.314;10.022;2023-07-24T08:57:02;15.50;;;10.63;;
20454;SDS011;10386;54.314;10.022;2023-07-24T08:59:31;16.05;;;10.57;;
20454;SDS011;10386;54.314;10.022;2023-07-24T09:01:58;20.98;;;11.30;;
20454;SDS011;10386;54.314;10.022;2023-07-24T09:04:25;18.45;;;10.65;;
20454;SDS011;10386;54.314;10.022;2023-07-24T09:06:52;18.17;;;10.70;;
20454;SDS011;10386;54.314;10.022;2023-07-24T09:09:22;18.90;;;10.52;;
20454;SDS011;10386;54.314;10.022;2023-07-24T09:11:50;19.85;;;10.60;;
20454;SDS011;10386;54.314;10.022;2023-07-24T09:14:21;14.80;;;10.18;;
20454;SDS011;10386;54.314;10.022;2023-07-24T09:17:06;16.98;;;9.77;;
20454;SDS011;10386;54.314;10.022;2023-07-24T09:19:34;21.75;;;10.88;;
20454;SDS011;10386;54.314;10.022;2023-07-24T09:22:12;21.20;;;10.95;;
20454;SDS011;10386;54.314;10.022;2023-07-24T09:24:50;16.95;;;9.52;;
20454;SDS011;10386;54.314;10.022;2023-07-24T09:27:17;17.23;;;10.18;;
20454;SDS011;10386;54.314;10.022;2023-07-24T09:29:44;15.10;;;9.10;;
20454;SDS011;10386;54.314;10.022;2023-07-24T09:32:21;17.92;;;9.35;;
20454;SDS011;10386;54.314;10.022;2023-07-24T09:34:49;17.48;;;8.75;;
20454;SDS011;10386;54.314;10.022;2023-07-24T09:37:27;14.40;;;8.93;;
20454;SDS011;10386;54.314;10.022;2023-07-24T09:39:55;13.85;;;8.77;;
20454;SDS011;10386;54.314;10.022;2023-07-24T09:44:56;15.30;;;8.57;;
20454;SDS011;10386;54.314;10.022;2023-07-24T09:47:23;14.65;;;8.57;;
20454;SDS011;10386;54.314;10.022;2023-07-24T09:50:10;17.40;;;8.95;;
20454;SDS011;10386;54.314;10.022;2023-07-24T09:52:37;18.85;;;9.55;;
20454;SDS011;10386;54.314;10.022;2023-07-24T09:55:12;13.02;;;8.80;;
20454;SDS011;10386;54.314;10.022;2023-07-24T09:57:56;13.68;;;8.73;;
20454;SDS011;10386;54.314;10.022;2023-07-24T10:00:25;17.67;;;9.25;;
20454;SDS011;10386;54.314;10.022;2023-07-24T10:02:52;16.52;;;9.48;;
20454;SDS011;10386;54.314;10.022;2023-07-24T10:05:19;14.10;;;8.90;;
20454;SDS011;10386;54.314;10.022;2023-07-24T10:07:46;15.50;;;8.65;;
20454;SDS011;10386;54.314;10.022;2023-07-24T10:10:14;16.60;;;8.30;;
20454;SDS011;10386;54.314;10.022;2023-07-24T10:12:42;13.65;;;7.93;;
20454;SDS011;10386;54.314;10.022;2023-07-24T10:15:09;13.43;;;8.98;;
20454;SDS011;10386;54.314;10.022;2023-07-24T10:17:37;13.10;;;8.13;;
20454;SDS011;10386;54.314;10.022;2023-07-24T10:20:10;12.85;;;7.65;;
20454;SDS011;10386;54.314;10.022;2023-07-24T10:22:42;13.45;;;7.68;;
20454;SDS011;10386;54.314;10.022;2023-07-24T10:25:09;12.95;;;7.90;;
20454;SDS011;10386;54.314;10.022;2023-07-24T10:27:39;14.88;;;7.82;;
20454;SDS011;10386;54.314;10.022;2023-07-24T10:30:10;15.88;;;8.73;;
20454;SDS011;10386;54.314;10.022;2023-07-24T10:33:04;14.18;;;7.65;;
20454;SDS011;10386;54.314;10.022;2023-07-24T10:38:09;12.93;;;7.78;;
20454;SDS011;10386;54.314;10.022;2023-07-24T10:40:36;14.38;;;7.57;;
20454;SDS011;10386;54.314;10.022;2023-07-24T10:43:04;14.82;;;7.35;;
20454;SDS011;10386;54.314;10.022;2023-07-24T10:48:09;15.18;;;7.45;;
20454;SDS011;10386;54.314;10.022;2023-07-24T10:50:39;11.40;;;7.05;;
20454;SDS011;10386;54.314;10.022;2023-07-24T10:53:10;13.48;;;7.13;;
20454;SDS011;10386;54.314;10.022;2023-07-24T10:55:40;13.02;;;6.88;;
20454;SDS011;10386;54.314;10.022;2023-07-24T10:58:07;12.98;;;6.65;;
20454;SDS011;10386;54.314;10.022;2023-07-24T11:00:34;12.18;;;6.80;;
20454;SDS011;10386;54.314;10.022;2023-07-24T11:03:01;12.50;;;6.22;;
20454;SDS011;10386;54.314;10.022;2023-07-24T11:05:29;10.13;;;6.25;;
20454;SDS011;10386;54.314;10.022;2023-07-24T11:07:55;11.43;;;6.53;;
20454;SDS011;10386;54.314;10.022;2023-07-24T11:10:23;15.32;;;7.00;;
20454;SDS011;10386;54.314;10.022;2023-07-24T11:12:50;10.18;;;6.50;;
20454;SDS011;10386;54.314;10.022;2023-07-24T11:15:23;8.48;;;6.18;;
20454;SDS011;10386;54.314;10.022;2023-07-24T11:17:52;12.98;;;6.53;;
20454;SDS011;10386;54.314;10.022;2023-07-24T11:20:19;9.25;;;6.43;;
20454;SDS011;10386;54.314;10.022;2023-07-24T11:22:45;10.95;;;6.30;;
20454;SDS011;10386;54.314;10.022;2023-07-24T11:25:12;9.38;;;5.80;;
20454;SDS011;10386;54.314;10.022;2023-07-24T11:27:40;10.45;;;6.20;;
20454;SDS011;10386;54.314;10.022;2023-07-24T11:30:10;8.00;;;4.80;;
20454;SDS011;10386;54.314;10.022;2023-07-24T11:32:41;10.40;;;4.90;;
20454;SDS011;10386;54.314;10.022;2023-07-24T11:35:09;10.23;;;4.68;;
20454;SDS011;10386;54.314;10.022;2023-07-24T11:37:36;17.50;;;5.30;;
20454;SDS011;10386;54.314;10.022;2023-07-24T11:40:04;12.88;;;4.78;;
20454;SDS011;10386;54.314;10.022;2023-07-24T11:42:36;8.52;;;5.43;;
20454;SDS011;10386;54.314;10.022;2023-07-24T11:45:05;8.30;;;5.20;;
20454;SDS011;10386;54.314;10.022;2023-07-24T11:50:10;8.98;;;5.18;;
20454;SDS011;10386;54.314;10.022;2023-07-24T11:52:43;9.52;;;5.47;;
20454;SDS011;10386;54.314;10.022;2023-07-24T11:55:12;9.02;;;5.43;;
20454;SDS011;10386;54.314;10.022;2023-07-24T11:57:55;9.15;;;4.85;;
20454;SDS011;10386;54.314;10.022;2023-07-24T12:00:25;8.45;;;4.82;;
20454;SDS011;10386;54.314;10.022;2023-07-24T12:02:52;9.60;;;4.70;;
20454;SDS011;10386;54.314;10.022;2023-07-24T12:05:20;9.70;;;5.38;;
20454;SDS011;10386;54.314;10.022;2023-07-24T12:07:48;13.27;;;5.50;;
20454;SDS011;10386;54.314;10.022;2023-07-24T12:10:24;8.82;;;5.43;;
20454;SDS011;10386;54.314;10.022;2023-07-24T12:12:57;7.97;;;4.50;;
20454;SDS011;10386;54.314;10.022;2023-07-24T12:15:26;7.00;;;4.35;;
20454;SDS011;10386;54.314;10.022;2023-07-24T12:17:53;10.80;;;4.80;;
20454;SDS011;10386;54.314;10.022;2023-07-24T12:20:20;13.27;;;5.50;;
20454;SDS011;10386;54.314;10.022;2023-07-24T12:22:48;13.98;;;5.80;;
20454;SDS011;10386;54.314;10.022;2023-07-24T12:25:15;12.07;;;5.60;;
20454;SDS011;10386;54.314;10.022;2023-07-24T12:27:42;10.65;;;6.43;;
20454;SDS011;10386;54.314;10.022;2023-07-24T12:30:09;17.38;;;6.60;;
20454;SDS011;10386;54.314;10.022;2023-07-24T12:32:36;12.20;;;6.70;;
20454;SDS011;10386;54.314;10.022;2023-07-24T12:35:03;14.45;;;6.50;;
20454;SDS011;10386;54.314;10.022;2023-07-24T12:37:30;13.55;;;6.00;;
20454;SDS011;10386;54.314;10.022;2023-07-24T12:39:57;15.15;;;5.75;;
20454;SDS011;10386;54.314;10.022;2023-07-24T12:42:24;14.13;;;5.88;;
20454;SDS011;10386;54.314;10.022;2023-07-24T12:44:51;12.13;;;6.30;;
20454;SDS011;10386;54.314;10.022;2023-07-24T12:47:18;9.05;;;6.55;;
20454;SDS011;10386;54.314;10.022;2023-07-24T12:49:45;11.25;;;6.80;;
20454;SDS011;10386;54.314;10.022;2023-07-24T12:52:12;10.25;;;6.35;;
20454;SDS011;10386;54.314;10.022;2023-07-24T12:54:38;10.30;;;5.95;;
20454;SDS011;10386;54.314;10.022;2023-07-24T12:57:25;9.55;;;5.38;;
20454;SDS011;10386;54.314;10.022;2023-07-24T12:59:53;10.05;;;5.32;;
20454;SDS011;10386;54.314;10.022;2023-07-24T13:02:20;11.13;;;4.60;;
20454;SDS011;10386;54.314;10.022;2023-07-24T13:04:46;9.27;;;5.18;;
20454;SDS011;10386;54.314;10.022;2023-07-24T13:07:13;7.65;;;4.93;;
20454;SDS011;10386;54.314;10.022;2023-07-24T13:09:40;9.43;;;4.28;;
20454;SDS011;10386;54.314;10.022;2023-07-24T13:12:07;7.20;;;4.60;;
20454;SDS011;10386;54.314;10.022;2023-07-24T13:14:34;7.53;;;4.00;;
20454;SDS011;10386;54.314;10.022;2023-07-24T13:17:03;9.30;;;4.43;;
20454;SDS011;10386;54.314;10.022;2023-07-24T13:19:30;5.45;;;4.05;;
20454;SDS011;10386;54.314;10.022;2023-07-24T13:21:58;8.68;;;4.18;;
20454;SDS011;10386;54.314;10.022;2023-07-24T13:24:24;5.03;;;3.90;;
20454;SDS011;10386;54.314;10.022;2023-07-24T13:26:51;7.15;;;3.92;;
20454;SDS011;10386;54.314;10.022;2023-07-24T13:29:18;5.85;;;3.90;;
20454;SDS011;10386;54.314;10.022;2023-07-24T13:31:45;5.07;;;3.47;;
20454;SDS011;10386;54.314;10.022;2023-07-24T13:34:12;8.05;;;3.75;;
20454;SDS011;10386;54.314;10.022;2023-07-24T13:36:39;4.25;;;3.47;;
20454;SDS011;10386;54.314;10.022;2023-07-24T13:39:05;10.30;;;4.03;;
20454;SDS011;10386;54.314;10.022;2023-07-24T13:41:32;5.28;;;3.67;;
20454;SDS011;10386;54.314;10.022;2023-07-24T13:44:00;12.50;;;4.35;;
20454;SDS011;10386;54.314;10.022;2023-07-24T13:46:26;6.05;;;3.47;;
20454;SDS011;10386;54.314;10.022;2023-07-24T13:48:53;5.28;;;3.88;;
20454;SDS011;10386;54.314;10.022;2023-07-24T13:51:20;4.38;;;3.47;;
20454;SDS011;10386;54.314;10.022;2023-07-24T13:53:47;9.52;;;4.00;;
20454;SDS011;10386;54.314;10.022;2023-07-24T13:56:15;5.38;;;4.15;;
20454;SDS011;10386;54.314;10.022;2023-07-24T13:58:42;6.03;;;3.97;;
20454;SDS011;10386;54.314;10.022;2023-07-24T14:01:09;5.95;;;3.90;;
20454;SDS011;10386;54.314;10.022;2023-07-24T14:03:36;4.13;;;3.53;;
20454;SDS011;10386;54.314;10.022;2023-07-24T14:06:03;5.88;;;3.63;;
20454;SDS011;10386;54.314;10.022;2023-07-24T14:08:31;9.27;;;3.50;;
20454;SDS011;10386;54.314;10.022;2023-07-24T14:10:57;7.22;;;3.45;;
20454;SDS011;10386;54.314;10.022;2023-07-24T14:13:24;3.53;;;2.65;;
20454;SDS011;10386;54.314;10.022;2023-07-24T14:15:51;6.30;;;3.63;;
20454;SDS011;10386;54.314;10.022;2023-07-24T14:18:18;6.40;;;3.08;;
20454;SDS011;10386;54.314;10.022;2023-07-24T14:20:45;5.97;;;3.30;;
20454;SDS011;10386;54.314;10.022;2023-07-24T14:23:13;5.40;;;3.55;;
20454;SDS011;10386;54.314;10.022;2023-07-24T14:25:40;8.80;;;3.20;;
20454;SDS011;10386;54.314;10.022;2023-07-24T14:28:07;8.38;;;3.33;;
20454;SDS011;10386;54.314;10.022;2023-07-24T14:30:33;4.57;;;3.20;;
20454;SDS011;10386;54.314;10.022;2023-07-24T14:33:00;5.28;;;3.20;;
20454;SDS011;10386;54.314;10.022;2023-07-24T14:35:27;7.22;;;3.33;;
20454;SDS011;10386;54.314;10.022;2023-07-24T14:37:54;8.00;;;3.20;;
20454;SDS011;10386;54.314;10.022;2023-07-24T14:40:20;9.05;;;3.92;;
20454;SDS011;10386;54.314;10.022;2023-07-24T14:42:47;6.72;;;3.40;;
20454;SDS011;10386;54.314;10.022;2023-07-24T14:45:14;5.13;;;3.58;;